sensor_id;sensor_type;location;lat;lon;timestamp;P1;durP1;ratioP1;P2;durP2;ratioP2
10031;SDS011;5056;44.272;19.892;2023-04-24T00:00:19;648.83;;;406.53;;
10031;SDS011;5056;44.272;19.892;2023-04-24T00:02:46;639.23;;;392.40;;
10031;SDS011;5056;44.272;19.892;2023-04-24T00:05:13;639.83;;;395.50;;
10031;SDS011;5056;44.272;19.892;2023-04-24T00:07:41;638.40;;;391.50;;
10031;SDS011;5056;44.272;19.892;2023-04-24T00:10:08;628.07;;;370.87;;
10031;SDS011;5056;44.272;19.892;2023-04-24T00:12:36;632.50;;;375.57;;
10031;SDS011;5056;44.272;19.892;2023-04-24T00:18:09;632.27;;;375.57;;
10031;SDS011;5056;44.272;19.892;2023-04-24T00:20:36;631.50;;;384.13;;
10031;SDS011;5056;44.272;19.892;2023-04-24T00:23:04;628.17;;;371.60;;
10031;SDS011;5056;44.272;19.892;2023-04-24T00:25:31;624.57;;;362.40;;
10031;SDS011;5056;44.272;19.892;2023-04-24T00:27:58;630.60;;;371.37;;
10031;SDS011;5056;44.272;19.892;2023-04-24T00:30:25;628.67;;;373.90;;
10031;SDS011;5056;44.272;19.892;2023-04-24T00:32:54;629.53;;;368.37;;
10031;SDS011;5056;44.272;19.892;2023-04-24T00:35:21;622.67;;;366.57;;
10031;SDS011;5056;44.272;19.892;2023-04-24T00:37:48;626.20;;;372.97;;
10031;SDS011;5056;44.272;19.892;2023-04-24T00:40:16;624.53;;;367.57;;
10031;SDS011;5056;44.272;19.892;2023-04-24T00:42:43;618.87;;;354.00;;
10031;SDS011;5056;44.272;19.892;2023-04-24T00:45:10;623.23;;;360.53;;
10031;SDS011;5056;44.272;19.892;2023-04-24T00:47:38;621.83;;;357.07;;
10031;SDS011;5056;44.272;19.892;2023-04-24T00:50:10;625.30;;;364.73;;
10031;SDS011;5056;44.272;19.892;2023-04-24T00:52:38;625.33;;;356.03;;
10031;SDS011;5056;44.272;19.892;2023-04-24T00:55:06;628.57;;;364.30;;
10031;SDS011;5056;44.272;19.892;2023-04-24T00:57:33;625.13;;;360.70;;
10031;SDS011;5056;44.272;19.892;2023-04-24T01:00:00;633.77;;;371.63;;
10031;SDS011;5056;44.272;19.892;2023-04-24T01:02:28;629.53;;;367.27;;
10031;SDS011;5056;44.272;19.892;2023-04-24T01:04:59;622.57;;;363.80;;
10031;SDS011;5056;44.272;19.892;2023-04-24T01:07:28;622.47;;;359.10;;
10031;SDS011;5056;44.272;19.892;2023-04-24T01:09:55;627.37;;;358.67;;
10031;SDS011;5056;44.272;19.892;2023-04-24T01:12:22;625.93;;;354.50;;
10031;SDS011;5056;44.272;19.892;2023-04-24T01:14:49;630.90;;;364.70;;
10031;SDS011;5056;44.272;19.892;2023-04-24T01:17:16;626.87;;;363.07;;
10031;SDS011;5056;44.272;19.892;2023-04-24T01:19:44;629.03;;;361.67;;
10031;SDS011;5056;44.272;19.892;2023-04-24T01:22:14;627.30;;;362.77;;
10031;SDS011;5056;44.272;19.892;2023-04-24T01:24:42;574.60;;;418.97;;
10031;SDS011;5056;44.272;19.892;2023-04-24T01:27:10;622.40;;;349.20;;
10031;SDS011;5056;44.272;19.892;2023-04-24T01:29:37;624.03;;;354.13;;
10031;SDS011;5056;44.272;19.892;2023-04-24T01:32:04;628.20;;;357.73;;
10031;SDS011;5056;44.272;19.892;2023-04-24T01:34:32;627.43;;;357.93;;
10031;SDS011;5056;44.272;19.892;2023-04-24T01:37:00;632.33;;;368.87;;
10031;SDS011;5056;44.272;19.892;2023-04-24T01:39:42;626.97;;;357.67;;
10031;SDS011;5056;44.272;19.892;2023-04-24T01:42:09;622.70;;;345.17;;
10031;SDS011;5056;44.272;19.892;2023-04-24T01:47:12;619.27;;;344.17;;
10031;SDS011;5056;44.272;19.892;2023-04-24T01:49:39;632.33;;;364.70;;
10031;SDS011;5056;44.272;19.892;2023-04-24T01:52:06;627.87;;;355.27;;
10031;SDS011;5056;44.272;19.892;2023-04-24T01:54:33;629.03;;;360.97;;
10031;SDS011;5056;44.272;19.892;2023-04-24T01:59:55;640.13;;;371.10;;
10031;SDS011;5056;44.272;19.892;2023-04-24T02:02:22;624.60;;;340.27;;
10031;SDS011;5056;44.272;19.892;2023-04-24T02:04:49;615.77;;;338.57;;
10031;SDS011;5056;44.272;19.892;2023-04-24T02:07:16;622.27;;;349.57;;
10031;SDS011;5056;44.272;19.892;2023-04-24T02:09:43;618.43;;;342.50;;
10031;SDS011;5056;44.272;19.892;2023-04-24T02:12:10;623.90;;;346.60;;
10031;SDS011;5056;44.272;19.892;2023-04-24T02:14:41;625.00;;;349.97;;
10031;SDS011;5056;44.272;19.892;2023-04-24T02:17:08;621.33;;;346.87;;
10031;SDS011;5056;44.272;19.892;2023-04-24T02:19:41;627.90;;;355.67;;
10031;SDS011;5056;44.272;19.892;2023-04-24T02:22:08;627.43;;;348.60;;
10031;SDS011;5056;44.272;19.892;2023-04-24T02:24:35;633.13;;;356.13;;
10031;SDS011;5056;44.272;19.892;2023-04-24T02:27:06;625.90;;;344.90;;
10031;SDS011;5056;44.272;19.892;2023-04-24T02:29:35;658.33;;;389.63;;
10031;SDS011;5056;44.272;19.892;2023-04-24T02:32:03;680.10;;;415.63;;
10031;SDS011;5056;44.272;19.892;2023-04-24T02:34:30;625.50;;;342.57;;
10031;SDS011;5056;44.272;19.892;2023-04-24T02:36:57;618.27;;;334.17;;
10031;SDS011;5056;44.272;19.892;2023-04-24T02:39:24;619.17;;;331.00;;
10031;SDS011;5056;44.272;19.892;2023-04-24T02:41:52;622.33;;;336.77;;
10031;SDS011;5056;44.272;19.892;2023-04-24T02:44:19;630.07;;;348.53;;
10031;SDS011;5056;44.272;19.892;2023-04-24T02:46:46;637.53;;;347.77;;
10031;SDS011;5056;44.272;19.892;2023-04-24T02:49:17;625.83;;;331.03;;
10031;SDS011;5056;44.272;19.892;2023-04-24T02:51:44;629.80;;;341.53;;
10031;SDS011;5056;44.272;19.892;2023-04-24T02:54:12;632.33;;;345.10;;
10031;SDS011;5056;44.272;19.892;2023-04-24T02:56:39;633.80;;;371.57;;
10031;SDS011;5056;44.272;19.892;2023-04-24T02:59:06;617.07;;;321.90;;
10031;SDS011;5056;44.272;19.892;2023-04-24T03:01:35;620.10;;;332.03;;
10031;SDS011;5056;44.272;19.892;2023-04-24T03:04:03;611.13;;;319.30;;
10031;SDS011;5056;44.272;19.892;2023-04-24T03:06:33;612.20;;;315.80;;
10031;SDS011;5056;44.272;19.892;2023-04-24T03:09:01;628.53;;;340.57;;
10031;SDS011;5056;44.272;19.892;2023-04-24T03:11:28;612.13;;;317.63;;
10031;SDS011;5056;44.272;19.892;2023-04-24T03:13:56;613.70;;;329.37;;
10031;SDS011;5056;44.272;19.892;2023-04-24T03:16:23;615.50;;;331.97;;
10031;SDS011;5056;44.272;19.892;2023-04-24T03:18:50;612.07;;;324.07;;
10031;SDS011;5056;44.272;19.892;2023-04-24T03:21:17;617.33;;;327.43;;
10031;SDS011;5056;44.272;19.892;2023-04-24T03:23:48;611.70;;;316.93;;
10031;SDS011;5056;44.272;19.892;2023-04-24T03:26:18;606.23;;;316.20;;
10031;SDS011;5056;44.272;19.892;2023-04-24T03:28:45;610.43;;;320.00;;
10031;SDS011;5056;44.272;19.892;2023-04-24T03:31:12;610.13;;;318.03;;
10031;SDS011;5056;44.272;19.892;2023-04-24T03:33:43;612.77;;;316.83;;
10031;SDS011;5056;44.272;19.892;2023-04-24T03:36:09;608.80;;;315.50;;
10031;SDS011;5056;44.272;19.892;2023-04-24T03:38:36;612.13;;;318.83;;
10031;SDS011;5056;44.272;19.892;2023-04-24T03:41:06;614.13;;;326.53;;
10031;SDS011;5056;44.272;19.892;2023-04-24T03:43:33;609.20;;;309.13;;
10031;SDS011;5056;44.272;19.892;2023-04-24T03:45:59;612.90;;;310.83;;
10031;SDS011;5056;44.272;19.892;2023-04-24T03:48:27;610.27;;;313.43;;
10031;SDS011;5056;44.272;19.892;2023-04-24T03:50:53;617.03;;;327.60;;
10031;SDS011;5056;44.272;19.892;2023-04-24T03:53:21;626.30;;;334.70;;
10031;SDS011;5056;44.272;19.892;2023-04-24T03:55:48;618.10;;;324.17;;
10031;SDS011;5056;44.272;19.892;2023-04-24T03:58:16;625.37;;;335.37;;
10031;SDS011;5056;44.272;19.892;2023-04-24T04:00:44;616.33;;;321.93;;
10031;SDS011;5056;44.272;19.892;2023-04-24T04:03:13;622.73;;;327.80;;
10031;SDS011;5056;44.272;19.892;2023-04-24T04:05:40;619.97;;;327.10;;
10031;SDS011;5056;44.272;19.892;2023-04-24T04:08:07;616.63;;;321.43;;
10031;SDS011;5056;44.272;19.892;2023-04-24T04:10:34;612.73;;;314.77;;
10031;SDS011;5056;44.272;19.892;2023-04-24T04:13:01;622.23;;;325.17;;
10031;SDS011;5056;44.272;19.892;2023-04-24T04:15:30;623.07;;;328.53;;
10031;SDS011;5056;44.272;19.892;2023-04-24T04:17:57;625.37;;;344.07;;
10031;SDS011;5056;44.272;19.892;2023-04-24T04:20:25;624.63;;;342.20;;
10031;SDS011;5056;44.272;19.892;2023-04-24T04:22:52;620.47;;;335.50;;
10031;SDS011;5056;44.272;19.892;2023-04-24T04:25:19;616.03;;;330.93;;
10031;SDS011;5056;44.272;19.892;2023-04-24T04:27:46;620.80;;;342.40;;
10031;SDS011;5056;44.272;19.892;2023-04-24T04:30:16;620.53;;;339.77;;
10031;SDS011;5056;44.272;19.892;2023-04-24T04:32:44;624.00;;;352.13;;
10031;SDS011;5056;44.272;19.892;2023-04-24T04:35:11;620.83;;;338.23;;
10031;SDS011;5056;44.272;19.892;2023-04-24T04:37:40;617.47;;;330.27;;
10031;SDS011;5056;44.272;19.892;2023-04-24T04:40:07;627.77;;;348.37;;
10031;SDS011;5056;44.272;19.892;2023-04-24T04:42:49;636.53;;;357.03;;
10031;SDS011;5056;44.272;19.892;2023-04-24T04:45:18;629.13;;;342.53;;
10031;SDS011;5056;44.272;19.892;2023-04-24T04:47:47;629.87;;;343.93;;
10031;SDS011;5056;44.272;19.892;2023-04-24T04:50:14;635.67;;;355.60;;
10031;SDS011;5056;44.272;19.892;2023-04-24T04:52:41;632.07;;;347.37;;
10031;SDS011;5056;44.272;19.892;2023-04-24T04:55:08;635.27;;;352.07;;
10031;SDS011;5056;44.272;19.892;2023-04-24T04:57:36;637.70;;;360.03;;
10031;SDS011;5056;44.272;19.892;2023-04-24T05:00:03;644.20;;;369.90;;
10031;SDS011;5056;44.272;19.892;2023-04-24T05:02:32;641.40;;;371.77;;
10031;SDS011;5056;44.272;19.892;2023-04-24T05:05:10;657.23;;;389.83;;
10031;SDS011;5056;44.272;19.892;2023-04-24T05:07:37;662.40;;;402.03;;
10031;SDS011;5056;44.272;19.892;2023-04-24T05:10:07;659.63;;;411.67;;
10031;SDS011;5056;44.272;19.892;2023-04-24T05:12:35;664.17;;;423.77;;
10031;SDS011;5056;44.272;19.892;2023-04-24T05:15:02;655.13;;;415.43;;
10031;SDS011;5056;44.272;19.892;2023-04-24T05:17:30;652.27;;;405.63;;
10031;SDS011;5056;44.272;19.892;2023-04-24T05:19:57;656.33;;;412.77;;
10031;SDS011;5056;44.272;19.892;2023-04-24T05:22:27;664.93;;;439.73;;
10031;SDS011;5056;44.272;19.892;2023-04-24T05:24:53;665.73;;;447.93;;
10031;SDS011;5056;44.272;19.892;2023-04-24T05:27:21;656.63;;;432.30;;
10031;SDS011;5056;44.272;19.892;2023-04-24T05:29:48;659.47;;;435.73;;
10031;SDS011;5056;44.272;19.892;2023-04-24T05:32:15;660.97;;;446.20;;
10031;SDS011;5056;44.272;19.892;2023-04-24T05:38:02;664.90;;;448.77;;
10031;SDS011;5056;44.272;19.892;2023-04-24T05:40:29;666.27;;;467.37;;
10031;SDS011;5056;44.272;19.892;2023-04-24T05:42:56;672.63;;;480.90;;
10031;SDS011;5056;44.272;19.892;2023-04-24T05:45:24;678.60;;;489.13;;
10031;SDS011;5056;44.272;19.892;2023-04-24T05:47:52;687.03;;;500.57;;
10031;SDS011;5056;44.272;19.892;2023-04-24T05:50:20;680.17;;;496.47;;
10031;SDS011;5056;44.272;19.892;2023-04-24T05:52:47;676.57;;;498.13;;
10031;SDS011;5056;44.272;19.892;2023-04-24T05:55:16;683.50;;;518.57;;
10031;SDS011;5056;44.272;19.892;2023-04-24T05:57:43;676.57;;;505.40;;
10031;SDS011;5056;44.272;19.892;2023-04-24T06:00:11;711.40;;;575.03;;
10031;SDS011;5056;44.272;19.892;2023-04-24T06:02:38;695.00;;;548.67;;
10031;SDS011;5056;44.272;19.892;2023-04-24T06:05:06;703.33;;;555.93;;
10031;SDS011;5056;44.272;19.892;2023-04-24T06:07:33;700.73;;;566.20;;
10031;SDS011;5056;44.272;19.892;2023-04-24T06:10:00;705.40;;;578.87;;
10031;SDS011;5056;44.272;19.892;2023-04-24T06:12:29;716.60;;;600.87;;
10031;SDS011;5056;44.272;19.892;2023-04-24T06:14:57;700.57;;;576.07;;
10031;SDS011;5056;44.272;19.892;2023-04-24T06:17:25;712.63;;;605.43;;
10031;SDS011;5056;44.272;19.892;2023-04-24T06:19:52;698.63;;;582.63;;
10031;SDS011;5056;44.272;19.892;2023-04-24T06:22:20;702.20;;;591.97;;
10031;SDS011;5056;44.272;19.892;2023-04-24T06:24:47;702.07;;;595.03;;
10031;SDS011;5056;44.272;19.892;2023-04-24T06:27:14;708.23;;;604.33;;
10031;SDS011;5056;44.272;19.892;2023-04-24T06:29:44;700.53;;;591.93;;
10031;SDS011;5056;44.272;19.892;2023-04-24T06:32:11;723.87;;;632.43;;
10031;SDS011;5056;44.272;19.892;2023-04-24T06:34:38;717.97;;;606.97;;
10031;SDS011;5056;44.272;19.892;2023-04-24T06:37:10;710.60;;;599.60;;
10031;SDS011;5056;44.272;19.892;2023-04-24T06:39:36;712.57;;;604.40;;
10031;SDS011;5056;44.272;19.892;2023-04-24T06:42:04;715.53;;;602.77;;
10031;SDS011;5056;44.272;19.892;2023-04-24T06:44:31;742.93;;;651.17;;
10031;SDS011;5056;44.272;19.892;2023-04-24T06:47:07;731.53;;;631.43;;
10031;SDS011;5056;44.272;19.892;2023-04-24T06:49:36;735.63;;;641.77;;
10031;SDS011;5056;44.272;19.892;2023-04-24T06:52:03;741.70;;;640.30;;
10031;SDS011;5056;44.272;19.892;2023-04-24T06:54:32;754.50;;;665.50;;
10031;SDS011;5056;44.272;19.892;2023-04-24T06:56:59;726.70;;;612.93;;
10031;SDS011;5056;44.272;19.892;2023-04-24T06:59:27;726.27;;;603.43;;
10031;SDS011;5056;44.272;19.892;2023-04-24T07:01:55;731.57;;;611.33;;
10031;SDS011;5056;44.272;19.892;2023-04-24T07:04:24;730.97;;;626.87;;
10031;SDS011;5056;44.272;19.892;2023-04-24T07:07:09;732.27;;;625.33;;
10031;SDS011;5056;44.272;19.892;2023-04-24T07:09:38;728.03;;;613.07;;
10031;SDS011;5056;44.272;19.892;2023-04-24T07:12:07;743.47;;;637.10;;
10031;SDS011;5056;44.272;19.892;2023-04-24T07:14:35;716.37;;;602.37;;
10031;SDS011;5056;44.272;19.892;2023-04-24T07:17:02;735.77;;;614.17;;
10031;SDS011;5056;44.272;19.892;2023-04-24T07:22:15;724.50;;;588.60;;
10031;SDS011;5056;44.272;19.892;2023-04-24T07:24:43;737.70;;;617.60;;
10031;SDS011;5056;44.272;19.892;2023-04-24T07:27:10;750.70;;;630.90;;
10031;SDS011;5056;44.272;19.892;2023-04-24T07:29:37;743.60;;;624.33;;
10031;SDS011;5056;44.272;19.892;2023-04-24T07:32:05;749.27;;;646.00;;
10031;SDS011;5056;44.272;19.892;2023-04-24T07:34:33;746.93;;;639.10;;
10031;SDS011;5056;44.272;19.892;2023-04-24T07:37:02;732.67;;;624.37;;
10031;SDS011;5056;44.272;19.892;2023-04-24T07:39:30;728.40;;;628.60;;
10031;SDS011;5056;44.272;19.892;2023-04-24T07:41:59;746.17;;;651.13;;
10031;SDS011;5056;44.272;19.892;2023-04-24T07:44:28;754.40;;;654.30;;
10031;SDS011;5056;44.272;19.892;2023-04-24T07:46:55;726.47;;;631.13;;
10031;SDS011;5056;44.272;19.892;2023-04-24T07:49:22;728.40;;;622.00;;
10031;SDS011;5056;44.272;19.892;2023-04-24T07:51:49;726.97;;;626.73;;
10031;SDS011;5056;44.272;19.892;2023-04-24T07:54:19;739.23;;;635.30;;
10031;SDS011;5056;44.272;19.892;2023-04-24T07:59:25;726.03;;;619.43;;
10031;SDS011;5056;44.272;19.892;2023-04-24T08:01:56;727.17;;;616.70;;
10031;SDS011;5056;44.272;19.892;2023-04-24T08:04:23;723.67;;;626.30;;
10031;SDS011;5056;44.272;19.892;2023-04-24T08:06:50;720.33;;;626.03;;
10031;SDS011;5056;44.272;19.892;2023-04-24T08:09:18;718.00;;;610.87;;
10031;SDS011;5056;44.272;19.892;2023-04-24T08:11:46;699.90;;;575.60;;
10031;SDS011;5056;44.272;19.892;2023-04-24T08:14:13;715.80;;;602.07;;
10031;SDS011;5056;44.272;19.892;2023-04-24T08:16:40;712.27;;;598.37;;
10031;SDS011;5056;44.272;19.892;2023-04-24T08:19:15;716.57;;;602.67;;
10031;SDS011;5056;44.272;19.892;2023-04-24T08:21:42;716.23;;;602.43;;
10031;SDS011;5056;44.272;19.892;2023-04-24T08:24:09;707.13;;;592.93;;
10031;SDS011;5056;44.272;19.892;2023-04-24T08:26:46;698.73;;;571.87;;
10031;SDS011;5056;44.272;19.892;2023-04-24T08:29:15;687.27;;;555.83;;
10031;SDS011;5056;44.272;19.892;2023-04-24T08:31:43;700.20;;;570.50;;
10031;SDS011;5056;44.272;19.892;2023-04-24T08:34:12;699.83;;;571.20;;
10031;SDS011;5056;44.272;19.892;2023-04-24T08:36:42;700.33;;;567.20;;
10031;SDS011;5056;44.272;19.892;2023-04-24T08:39:09;694.80;;;569.57;;
10031;SDS011;5056;44.272;19.892;2023-04-24T08:41:36;697.77;;;572.17;;
10031;SDS011;5056;44.272;19.892;2023-04-24T08:44:05;703.07;;;582.70;;
10031;SDS011;5056;44.272;19.892;2023-04-24T08:46:33;705.50;;;578.97;;
10031;SDS011;5056;44.272;19.892;2023-04-24T08:49:00;688.90;;;555.97;;
10031;SDS011;5056;44.272;19.892;2023-04-24T08:51:29;691.83;;;555.30;;
10031;SDS011;5056;44.272;19.892;2023-04-24T08:53:59;697.00;;;580.60;;
10031;SDS011;5056;44.272;19.892;2023-04-24T08:56:26;706.33;;;587.63;;
10031;SDS011;5056;44.272;19.892;2023-04-24T08:58:55;700.73;;;579.57;;
10031;SDS011;5056;44.272;19.892;2023-04-24T09:01:24;690.40;;;569.37;;
10031;SDS011;5056;44.272;19.892;2023-04-24T09:03:51;693.47;;;566.20;;
10031;SDS011;5056;44.272;19.892;2023-04-24T09:06:20;695.17;;;574.63;;
10031;SDS011;5056;44.272;19.892;2023-04-24T09:08:49;692.80;;;573.10;;
10031;SDS011;5056;44.272;19.892;2023-04-24T09:11:18;698.27;;;581.63;;
10031;SDS011;5056;44.272;19.892;2023-04-24T09:13:46;687.47;;;556.87;;
10031;SDS011;5056;44.272;19.892;2023-04-24T09:16:14;694.43;;;572.20;;
10031;SDS011;5056;44.272;19.892;2023-04-24T09:18:44;697.87;;;578.47;;
10031;SDS011;5056;44.272;19.892;2023-04-24T09:21:11;686.53;;;555.17;;
10031;SDS011;5056;44.272;19.892;2023-04-24T09:23:39;699.80;;;585.57;;
10031;SDS011;5056;44.272;19.892;2023-04-24T09:26:07;700.53;;;577.80;;
10031;SDS011;5056;44.272;19.892;2023-04-24T09:28:36;700.83;;;579.40;;
10031;SDS011;5056;44.272;19.892;2023-04-24T09:31:07;697.20;;;567.67;;
10031;SDS011;5056;44.272;19.892;2023-04-24T09:33:36;701.80;;;576.07;;
10031;SDS011;5056;44.272;19.892;2023-04-24T09:36:08;700.17;;;569.03;;
10031;SDS011;5056;44.272;19.892;2023-04-24T09:38:35;695.60;;;559.30;;
10031;SDS011;5056;44.272;19.892;2023-04-24T09:41:04;700.77;;;577.83;;
10031;SDS011;5056;44.272;19.892;2023-04-24T09:43:32;702.13;;;588.73;;
10031;SDS011;5056;44.272;19.892;2023-04-24T09:46:04;696.67;;;577.87;;
10031;SDS011;5056;44.272;19.892;2023-04-24T09:48:33;688.83;;;564.83;;
10031;SDS011;5056;44.272;19.892;2023-04-24T09:51:02;684.93;;;565.37;;
10031;SDS011;5056;44.272;19.892;2023-04-24T09:53:31;695.13;;;575.40;;
10031;SDS011;5056;44.272;19.892;2023-04-24T09:56:02;713.47;;;618.87;;
10031;SDS011;5056;44.272;19.892;2023-04-24T09:58:34;691.50;;;572.47;;
10031;SDS011;5056;44.272;19.892;2023-04-24T10:01:01;742.70;;;662.60;;
10031;SDS011;5056;44.272;19.892;2023-04-24T10:03:29;708.27;;;596.43;;
10031;SDS011;5056;44.272;19.892;2023-04-24T10:05:58;703.17;;;587.03;;
10031;SDS011;5056;44.272;19.892;2023-04-24T10:08:25;696.60;;;592.10;;
10031;SDS011;5056;44.272;19.892;2023-04-24T10:10:55;694.00;;;570.90;;
10031;SDS011;5056;44.272;19.892;2023-04-24T10:13:24;695.10;;;585.80;;
10031;SDS011;5056;44.272;19.892;2023-04-24T10:15:52;696.33;;;589.60;;
10031;SDS011;5056;44.272;19.892;2023-04-24T10:18:19;691.57;;;581.40;;
10031;SDS011;5056;44.272;19.892;2023-04-24T10:20:49;695.73;;;574.97;;
10031;SDS011;5056;44.272;19.892;2023-04-24T10:23:16;699.50;;;585.47;;
10031;SDS011;5056;44.272;19.892;2023-04-24T10:25:44;682.87;;;548.53;;
10031;SDS011;5056;44.272;19.892;2023-04-24T10:28:14;684.33;;;557.13;;
10031;SDS011;5056;44.272;19.892;2023-04-24T10:30:42;676.73;;;541.27;;
10031;SDS011;5056;44.272;19.892;2023-04-24T10:33:10;675.70;;;538.43;;
10031;SDS011;5056;44.272;19.892;2023-04-24T10:35:40;676.23;;;542.77;;
10031;SDS011;5056;44.272;19.892;2023-04-24T10:38:09;675.13;;;551.87;;
10031;SDS011;5056;44.272;19.892;2023-04-24T10:40:38;682.40;;;550.10;;
10031;SDS011;5056;44.272;19.892;2023-04-24T10:43:07;686.33;;;562.53;;
10031;SDS011;5056;44.272;19.892;2023-04-24T10:45:39;691.83;;;575.97;;
10031;SDS011;5056;44.272;19.892;2023-04-24T10:48:07;687.33;;;568.40;;
10031;SDS011;5056;44.272;19.892;2023-04-24T10:50:42;686.13;;;560.47;;
10031;SDS011;5056;44.272;19.892;2023-04-24T10:53:12;691.77;;;584.40;;
10031;SDS011;5056;44.272;19.892;2023-04-24T10:55:43;694.30;;;580.03;;
10031;SDS011;5056;44.272;19.892;2023-04-24T10:58:11;696.43;;;595.13;;
10031;SDS011;5056;44.272;19.892;2023-04-24T11:00:41;692.63;;;595.00;;
10031;SDS011;5056;44.272;19.892;2023-04-24T11:03:22;695.50;;;608.63;;
10031;SDS011;5056;44.272;19.892;2023-04-24T11:05:55;699.53;;;618.10;;
10031;SDS011;5056;44.272;19.892;2023-04-24T11:08:24;692.57;;;609.10;;
10031;SDS011;5056;44.272;19.892;2023-04-24T11:10:56;715.23;;;636.40;;
10031;SDS011;5056;44.272;19.892;2023-04-24T11:13:25;732.43;;;652.57;;
10031;SDS011;5056;44.272;19.892;2023-04-24T11:18:43;707.70;;;628.73;;
10031;SDS011;5056;44.272;19.892;2023-04-24T11:21:16;710.67;;;632.33;;
10031;SDS011;5056;44.272;19.892;2023-04-24T11:23:45;703.90;;;625.67;;
10031;SDS011;5056;44.272;19.892;2023-04-24T11:26:12;695.17;;;607.17;;
10031;SDS011;5056;44.272;19.892;2023-04-24T11:28:44;698.87;;;618.00;;
10031;SDS011;5056;44.272;19.892;2023-04-24T11:34:08;689.07;;;591.30;;
10031;SDS011;5056;44.272;19.892;2023-04-24T11:36:37;688.47;;;584.67;;
10031;SDS011;5056;44.272;19.892;2023-04-24T11:39:04;692.47;;;588.57;;
10031;SDS011;5056;44.272;19.892;2023-04-24T11:41:32;703.57;;;593.70;;
10031;SDS011;5056;44.272;19.892;2023-04-24T11:44:02;688.57;;;582.27;;
10031;SDS011;5056;44.272;19.892;2023-04-24T11:46:33;685.40;;;580.80;;
10031;SDS011;5056;44.272;19.892;2023-04-24T11:49:05;688.07;;;583.07;;
10031;SDS011;5056;44.272;19.892;2023-04-24T11:51:33;678.60;;;563.93;;
10031;SDS011;5056;44.272;19.892;2023-04-24T11:54:01;685.73;;;571.30;;
10031;SDS011;5056;44.272;19.892;2023-04-24T11:56:29;679.93;;;556.40;;
10031;SDS011;5056;44.272;19.892;2023-04-24T11:58:56;678.97;;;559.80;;
10031;SDS011;5056;44.272;19.892;2023-04-24T12:01:24;675.43;;;552.60;;
10031;SDS011;5056;44.272;19.892;2023-04-24T12:03:58;671.13;;;536.90;;
10031;SDS011;5056;44.272;19.892;2023-04-24T12:06:30;680.93;;;558.13;;
10031;SDS011;5056;44.272;19.892;2023-04-24T12:08:57;679.17;;;561.30;;
10031;SDS011;5056;44.272;19.892;2023-04-24T12:11:26;679.20;;;556.70;;
10031;SDS011;5056;44.272;19.892;2023-04-24T12:13:55;674.27;;;540.93;;
10031;SDS011;5056;44.272;19.892;2023-04-24T12:16:24;679.23;;;558.10;;
10031;SDS011;5056;44.272;19.892;2023-04-24T12:18:52;680.43;;;572.97;;
10031;SDS011;5056;44.272;19.892;2023-04-24T12:21:21;689.33;;;598.53;;
10031;SDS011;5056;44.272;19.892;2023-04-24T12:23:53;688.20;;;592.47;;
10031;SDS011;5056;44.272;19.892;2023-04-24T12:26:21;696.10;;;614.93;;
10031;SDS011;5056;44.272;19.892;2023-04-24T12:28:50;490.50;;;440.50;;
10031;SDS011;5056;44.272;19.892;2023-04-24T12:31:18;722.37;;;644.00;;
10031;SDS011;5056;44.272;19.892;2023-04-24T12:33:47;717.70;;;639.27;;
10031;SDS011;5056;44.272;19.892;2023-04-24T12:36:16;725.00;;;646.20;;
10031;SDS011;5056;44.272;19.892;2023-04-24T12:38:45;738.23;;;659.50;;
10031;SDS011;5056;44.272;19.892;2023-04-24T12:41:12;745.77;;;666.70;;
10031;SDS011;5056;44.272;19.892;2023-04-24T12:43:50;683.97;;;612.30;;
10031;SDS011;5056;44.272;19.892;2023-04-24T12:46:23;755.07;;;675.50;;
10031;SDS011;5056;44.272;19.892;2023-04-24T12:48:50;770.60;;;691.10;;
10031;SDS011;5056;44.272;19.892;2023-04-24T12:51:24;773.27;;;693.67;;
10031;SDS011;5056;44.272;19.892;2023-04-24T12:53:53;780.60;;;700.67;;
10031;SDS011;5056;44.272;19.892;2023-04-24T12:56:20;782.37;;;702.40;;
10031;SDS011;5056;44.272;19.892;2023-04-24T12:58:47;791.20;;;710.90;;
10031;SDS011;5056;44.272;19.892;2023-04-24T13:01:17;798.23;;;716.60;;
10031;SDS011;5056;44.272;19.892;2023-04-24T13:03:47;39.55;;;36.03;;
10031;SDS011;5056;44.272;19.892;2023-04-24T13:06:13;830.40;;;748.00;;
10031;SDS011;5056;44.272;19.892;2023-04-24T13:08:44;810.37;;;728.67;;
10031;SDS011;5056;44.272;19.892;2023-04-24T13:11:14;818.07;;;736.57;;
10031;SDS011;5056;44.272;19.892;2023-04-24T13:13:41;807.30;;;726.07;;
10031;SDS011;5056;44.272;19.892;2023-04-24T13:16:11;817.73;;;736.17;;
10031;SDS011;5056;44.272;19.892;2023-04-24T13:18:38;820.83;;;738.93;;
10031;SDS011;5056;44.272;19.892;2023-04-24T13:21:06;808.60;;;727.73;;
10031;SDS011;5056;44.272;19.892;2023-04-24T13:23:33;818.00;;;736.80;;
10031;SDS011;5056;44.272;19.892;2023-04-24T13:26:03;800.10;;;719.50;;
10031;SDS011;5056;44.272;19.892;2023-04-24T13:28:33;810.23;;;729.47;;
10031;SDS011;5056;44.272;19.892;2023-04-24T13:31:00;807.43;;;726.63;;
10031;SDS011;5056;44.272;19.892;2023-04-24T13:33:28;814.00;;;733.33;;
10031;SDS011;5056;44.272;19.892;2023-04-24T13:35:57;802.70;;;722.23;;
10031;SDS011;5056;44.272;19.892;2023-04-24T13:38:24;796.00;;;716.03;;
10031;SDS011;5056;44.272;19.892;2023-04-24T13:40:53;791.97;;;712.07;;
10031;SDS011;5056;44.272;19.892;2023-04-24T13:43:20;795.40;;;715.40;;
10031;SDS011;5056;44.272;19.892;2023-04-24T13:45:52;792.07;;;712.40;;
10031;SDS011;5056;44.272;19.892;2023-04-24T13:48:20;791.13;;;711.20;;
10031;SDS011;5056;44.272;19.892;2023-04-24T13:50:48;800.50;;;720.30;;
10031;SDS011;5056;44.272;19.892;2023-04-24T13:53:15;759.30;;;684.20;;
10031;SDS011;5056;44.272;19.892;2023-04-24T13:55:43;943.03;;;862.42;;
10031;SDS011;5056;44.272;19.892;2023-04-24T13:58:10;821.43;;;740.17;;
10031;SDS011;5056;44.272;19.892;2023-04-24T14:00:37;735.50;;;663.43;;
10031;SDS011;5056;44.272;19.892;2023-04-24T14:03:07;584.83;;;532.10;;
10031;SDS011;5056;44.272;19.892;2023-04-24T14:05:34;1010.70;;;933.10;;
10031;SDS011;5056;44.272;19.892;2023-04-24T14:08:04;823.13;;;743.73;;
10031;SDS011;5056;44.272;19.892;2023-04-24T14:10:32;814.40;;;733.50;;
10031;SDS011;5056;44.272;19.892;2023-04-24T14:12:59;819.27;;;738.03;;
10031;SDS011;5056;44.272;19.892;2023-04-24T14:15:26;828.40;;;746.83;;
10031;SDS011;5056;44.272;19.892;2023-04-24T14:17:54;819.97;;;738.30;;
10031;SDS011;5056;44.272;19.892;2023-04-24T14:20:23;814.67;;;733.47;;
10031;SDS011;5056;44.272;19.892;2023-04-24T14:22:51;688.50;;;633.63;;
10031;SDS011;5056;44.272;19.892;2023-04-24T14:25:18;1029.40;;;938.50;;